createdAt,value
2022-09-28T00:02:58.601Z,18.03
2022-09-28T00:07:58.058Z,18.03
2022-09-28T00:12:56.825Z,18.03
2022-09-28T00:17:55.520Z,18.07
2022-09-28T00:22:55.612Z,18.13
2022-09-28T00:27:54.412Z,18.01
2022-09-28T00:32:53.226Z,18.10
2022-09-28T00:37:52.282Z,18.17
2022-09-28T00:42:52.388Z,18.20
2022-09-28T00:47:56.805Z,18.23
2022-09-28T00:52:59.129Z,18.26
2022-09-28T00:58:04.553Z,18.31
2022-09-28T01:03:05.151Z,18.31
2022-09-28T01:08:05.749Z,18.31
2022-09-28T01:13:06.096Z,18.32
2022-09-28T01:18:14.541Z,18.30
2022-09-28T01:23:59.762Z,18.29
2022-09-28T01:29:06.264Z,18.28
2022-09-28T01:34:12.605Z,18.29
2022-09-28T01:39:14.986Z,18.28
2022-09-28T01:44:18.448Z,18.21
2022-09-28T01:49:21.312Z,18.19
2022-09-28T01:54:26.898Z,18.17
2022-09-28T01:59:31.047Z,18.15
2022-09-28T02:04:35.217Z,18.18
2022-09-28T02:09:40.263Z,18.18
2022-09-28T02:14:45.171Z,18.20
2022-09-28T02:19:45.135Z,18.20
2022-09-28T02:24:52.960Z,18.15
2022-09-28T02:29:57.509Z,18.13
2022-09-28T02:34:56.842Z,18.10
2022-09-28T02:39:55.673Z,18.06
2022-09-28T02:45:09.178Z,17.94
2022-09-28T02:50:17.615Z,17.91
2022-09-28T02:55:26.390Z,17.81
2022-09-28T03:00:28.090Z,17.77
2022-09-28T03:05:33.415Z,17.73
2022-09-28T03:10:40.095Z,17.70
2022-09-28T03:15:41.013Z,17.69
2022-09-28T03:20:40.705Z,17.61
2022-09-28T03:25:39.478Z,17.60
2022-09-28T03:30:39.752Z,17.59
2022-09-28T03:35:38.507Z,17.55
2022-09-28T03:40:37.476Z,17.53
2022-09-28T03:45:36.441Z,17.47
2022-09-28T03:50:36.615Z,17.40
2022-09-28T03:55:35.467Z,17.37
2022-09-28T04:00:34.575Z,17.35
2022-09-28T04:05:33.475Z,17.32
2022-09-28T04:10:33.727Z,17.33
2022-09-28T04:15:32.695Z,17.30
2022-09-28T04:20:31.641Z,17.30
2022-09-28T04:25:37.749Z,17.31
2022-09-28T04:30:36.882Z,17.31
2022-09-28T04:35:35.906Z,17.33
2022-09-28T04:40:34.749Z,17.31
2022-09-28T04:45:35.158Z,17.31
2022-09-28T04:50:39.698Z,17.32
2022-09-28T04:55:46.733Z,17.32
2022-09-28T05:00:47.046Z,17.37
2022-09-28T05:06:18.619Z,17.36
2022-09-28T05:11:21.508Z,17.39
2022-09-28T05:16:21.665Z,17.42
2022-09-28T05:21:39.030Z,17.45
2022-09-28T05:26:38.001Z,17.46
2022-09-28T05:31:40.289Z,17.47
2022-09-28T05:36:40.072Z,17.37
2022-09-28T05:41:39.522Z,17.45
2022-09-28T05:46:39.737Z,17.50
2022-09-28T05:51:41.110Z,17.52
2022-09-28T05:56:40.966Z,17.59
2022-09-28T06:01:42.651Z,17.60
2022-09-28T06:06:43.234Z,17.70
2022-09-28T06:11:42.486Z,17.79
2022-09-28T06:16:52.396Z,17.99
2022-09-28T06:21:51.212Z,18.04
2022-09-28T06:26:49.981Z,18.12
2022-09-28T06:31:52.631Z,18.29
2022-09-28T06:36:51.725Z,18.44
2022-09-28T06:41:50.799Z,18.45
2022-09-28T06:46:53.584Z,18.68
2022-09-28T06:51:52.447Z,18.82
2022-09-28T06:56:54.631Z,19.01
2022-09-28T07:01:55.482Z,19.01
2022-09-28T07:07:13.076Z,19.02
2022-09-28T07:12:36.384Z,19.25
2022-09-28T07:17:58.179Z,19.30
2022-09-28T07:23:15.611Z,19.49
2022-09-28T07:28:40.547Z,19.47
2022-09-28T07:34:03.849Z,19.59
2022-09-28T07:39:11.760Z,19.86
2022-09-28T07:44:11.415Z,20.04
2022-09-28T07:49:13.201Z,20.20
2022-09-28T07:54:27.614Z,20.38
2022-09-28T07:59:43.762Z,20.32
2022-09-28T08:05:02.489Z,20.49
2022-09-28T08:10:01.487Z,20.48
2022-09-28T08:15:00.319Z,20.75
2022-09-28T08:20:27.718Z,20.97
2022-09-28T08:25:26.705Z,21.06
2022-09-28T08:30:26.851Z,21.14
2022-09-28T08:35:39.511Z,21.43
2022-09-28T08:41:00.850Z,21.71
2022-09-28T08:46:09.788Z,22.24
2022-09-28T08:51:49.063Z,23.01
2022-09-28T08:56:59.522Z,23.78
2022-09-28T09:02:03.669Z,24.47
2022-09-28T09:07:46.332Z,25.56
2022-09-28T09:12:57.005Z,26.33
2022-09-28T09:18:10.726Z,27.26
2022-09-28T09:23:25.956Z,27.42
2022-09-28T09:28:53.317Z,28.32
2022-09-28T09:34:29.825Z,28.62
2022-09-28T09:40:05.633Z,28.93
2022-09-28T09:45:55.812Z,29.71
2022-09-28T09:51:42.926Z,29.86
2022-09-28T09:56:48.393Z,29.70
2022-09-28T10:02:23.424Z,30.45
2022-09-28T10:07:43.449Z,30.46
2022-09-28T10:12:43.065Z,30.11
2022-09-28T10:17:43.688Z,30.93
2022-09-28T10:23:06.188Z,31.52
2022-09-28T10:28:08.159Z,32.44
2022-09-28T10:33:30.631Z,32.70
2022-09-28T10:38:31.551Z,32.44
2022-09-28T10:43:46.551Z,33.30
2022-09-28T10:48:54.190Z,32.28
2022-09-28T10:54:01.585Z,32.59
2022-09-28T10:59:48.561Z,33.60
2022-09-28T11:05:21.274Z,33.80
2022-09-28T11:10:23.308Z,34.17
2022-09-28T11:15:28.572Z,33.82
2022-09-28T11:20:36.087Z,34.47
2022-09-28T11:25:37.603Z,34.44
2022-09-28T11:30:46.121Z,34.00
2022-09-28T11:36:12.667Z,34.54
2022-09-28T11:41:26.398Z,35.01
2022-09-28T11:46:35.120Z,35.69
2022-09-28T11:51:44.745Z,35.93
2022-09-28T11:56:47.289Z,36.00
2022-09-28T12:01:52.124Z,36.44
2022-09-28T12:07:20.562Z,36.51
2022-09-28T12:12:25.854Z,36.12
2022-09-28T12:17:32.894Z,36.13
2022-09-28T12:22:39.140Z,36.08
2022-09-28T12:27:43.106Z,36.43
2022-09-28T12:32:48.162Z,36.17
2022-09-28T12:38:08.838Z,35.86
2022-09-28T12:43:33.674Z,36.47
2022-09-28T12:49:03.049Z,36.86
2022-09-28T12:54:25.032Z,36.63
2022-09-28T12:59:32.197Z,37.44
2022-09-28T13:04:51.124Z,37.74
2022-09-28T13:10:02.788Z,37.67
2022-09-28T13:15:17.510Z,36.48
2022-09-28T13:20:30.313Z,37.05
2022-09-28T13:25:36.228Z,37.64
2022-09-28T13:30:39.924Z,37.39
2022-09-28T13:35:44.293Z,37.15
2022-09-28T13:41:13.166Z,37.43
2022-09-28T13:46:22.127Z,37.93
2022-09-28T13:51:38.859Z,38.10
2022-09-28T13:56:50.458Z,38.20
2022-09-28T14:01:55.925Z,38.49
2022-09-28T14:06:57.666Z,38.67
2022-09-28T14:12:00.110Z,38.59
2022-09-28T14:17:48.386Z,38.58
2022-09-28T14:23:17.068Z,38.34
2022-09-28T14:28:35.596Z,38.64
2022-09-28T14:33:35.131Z,38.76
2022-09-28T14:38:55.080Z,38.56
2022-09-28T14:44:09.392Z,37.65
2022-09-28T14:49:41.003Z,37.67
2022-09-28T14:54:52.511Z,37.45
2022-09-28T14:59:52.778Z,36.82
2022-09-28T15:04:55.305Z,36.65
2022-09-28T15:09:55.375Z,36.23
2022-09-28T15:14:59.252Z,35.74
2022-09-28T15:20:23.336Z,35.14
2022-09-28T15:25:24.996Z,34.54
2022-09-28T15:30:28.003Z,33.84
2022-09-28T15:35:28.471Z,33.35
2022-09-28T15:40:32.916Z,32.90
2022-09-28T15:45:38.348Z,32.45
2022-09-28T15:50:38.395Z,31.98
2022-09-28T15:55:42.842Z,31.54
2022-09-28T16:00:43.713Z,31.14
2022-09-28T16:05:46.315Z,30.69
2022-09-28T16:10:59.103Z,30.34
2022-09-28T16:16:01.393Z,30.04
2022-09-28T16:21:30.180Z,29.71
2022-09-28T16:26:33.924Z,29.35
2022-09-28T16:31:35.030Z,29.08
2022-09-28T16:36:42.858Z,28.77
2022-09-28T16:41:44.997Z,28.58
2022-09-28T16:46:46.849Z,28.42
2022-09-28T16:51:48.334Z,28.20
2022-09-28T16:56:47.239Z,28.00
2022-09-28T17:01:47.416Z,27.86
2022-09-28T17:06:46.365Z,27.70
2022-09-28T17:11:45.341Z,27.55
2022-09-28T17:17:06.935Z,27.38
2022-09-28T17:22:04.448Z,27.26
2022-09-28T17:27:03.537Z,27.12
2022-09-28T17:32:02.611Z,26.99
2022-09-28T17:37:01.488Z,26.89
2022-09-28T17:42:01.655Z,26.80
2022-09-28T17:47:02.192Z,26.72
2022-09-28T17:52:01.211Z,26.61
2022-09-28T17:57:01.416Z,26.54
2022-09-28T18:02:02.390Z,26.45
2022-09-28T18:07:05.133Z,26.39
2022-09-28T18:12:06.468Z,26.35
2022-09-28T18:17:08.177Z,26.29
2022-09-28T18:22:08.503Z,26.23
2022-09-28T18:27:10.811Z,26.18
2022-09-28T18:32:10.941Z,26.11
2022-09-28T18:37:14.251Z,26.06
2022-09-28T18:42:15.118Z,26.01
2022-09-28T18:47:15.363Z,25.91
2022-09-28T18:52:14.208Z,25.87
2022-09-28T18:57:15.514Z,25.81
2022-09-28T19:02:14.607Z,25.69
2022-09-28T19:07:14.240Z,25.55
2022-09-28T19:12:20.001Z,25.44
2022-09-28T19:17:21.840Z,25.38
2022-09-28T19:22:22.095Z,25.28
2022-09-28T19:27:23.237Z,25.17
2022-09-28T19:32:22.148Z,25.05
2022-09-28T19:37:25.210Z,24.93
2022-09-28T19:42:25.961Z,24.86
2022-09-28T19:47:26.718Z,24.79
2022-09-28T19:52:26.934Z,24.70
2022-09-28T19:57:29.345Z,24.64
2022-09-28T20:02:28.505Z,24.56
2022-09-28T20:07:33.798Z,24.47
2022-09-28T20:12:36.297Z,24.44
2022-09-28T20:17:38.038Z,24.38
2022-09-28T20:22:39.250Z,24.32
2022-09-28T20:27:39.992Z,24.33
2022-09-28T20:32:39.212Z,24.26
2022-09-28T20:37:37.978Z,24.26
2022-09-28T20:42:39.175Z,24.16
2022-09-28T20:47:43.478Z,24.15
2022-09-28T20:52:43.710Z,24.16
2022-09-28T20:57:42.558Z,24.15
2022-09-28T21:02:41.448Z,24.16
2022-09-28T21:07:41.952Z,24.18
2022-09-28T21:12:40.778Z,24.14
2022-09-28T21:17:39.557Z,24.12
2022-09-28T21:22:38.249Z,24.08
2022-09-28T21:27:38.515Z,24.03
2022-09-28T21:32:37.344Z,23.98
2022-09-28T21:37:36.055Z,23.84
2022-09-28T21:42:34.824Z,23.75
2022-09-28T21:47:34.921Z,23.73
2022-09-28T21:52:33.646Z,23.66
2022-09-28T21:57:32.312Z,23.38
2022-09-28T22:02:32.223Z,23.25
2022-09-28T22:07:32.339Z,23.31
2022-09-28T22:12:31.369Z,23.34
2022-09-28T22:17:30.149Z,23.35
2022-09-28T22:22:32.584Z,23.31
2022-09-28T22:27:33.060Z,23.14
2022-09-28T22:32:31.771Z,23.00
2022-09-28T22:37:31.808Z,22.91
2022-09-28T22:42:32.706Z,22.78
2022-09-28T22:47:31.414Z,22.75
2022-09-28T22:52:30.130Z,22.61
2022-09-28T22:57:28.836Z,22.46
2022-09-28T23:02:28.993Z,22.49
2022-09-28T23:07:27.769Z,22.41
2022-09-28T23:12:26.547Z,22.36
2022-09-28T23:17:25.239Z,22.27
2022-09-28T23:22:25.464Z,22.20
2022-09-28T23:27:24.269Z,22.10
2022-09-28T23:32:22.998Z,22.08
2022-09-28T23:37:21.747Z,21.96
2022-09-28T23:42:23.864Z,21.94
2022-09-28T23:47:22.582Z,21.91
2022-09-28T23:52:21.237Z,21.85
2022-09-28T23:57:19.928Z,21.68
